Time;durP1;ratioP1;P1;durP2;ratioP2;P2;SDS_P1;SDS_P2;PMS_P1;PMS_P2;Temp;Humidity;BMP_temperature;BMP_pressure;BME280_temperature;BME280_humidity;BME280_pressure;Samples;Min_cycle;Max_cycle;Signal;HPM_P1;HPM_P2
2022/02/02 00:00:51;;;;;;;41.90;7.97;;;5.60;99.90;;;;;;5059522;28;20112;-56
2022/02/02 00:03:19;;;;;;;40.40;7.93;;;5.70;99.90;;;;;;5058607;28;20033;-52
2022/02/02 00:08:17;;;;;;;35.28;8.18;;;5.70;99.90;;;;;;5059232;28;20020;-53
2022/02/02 00:11:51;;;;;;;44.67;10.32;;;5.70;99.90;;;;;;5058877;28;20159;-53
2022/02/02 00:13:57;;;;;;;42.95;7.32;;;5.70;99.90;;;;;;5047546;28;20495;-53
2022/02/02 00:19:11;;;;;;;35.88;7.80;;;5.80;99.90;;;;;;5058496;28;20016;-51
2022/02/02 00:24:04;;;;;;;34.40;7.70;;;5.70;99.90;;;;;;5062447;28;20120;-51
2022/02/02 00:26:35;;;;;;;33.53;8.00;;;5.80;99.90;;;;;;5061528;28;20506;-52
2022/02/02 00:29:16;;;;;;;35.17;8.07;;;5.70;99.90;;;;;;5063329;28;20020;-53
2022/02/02 00:31:48;;;;;;;39.90;8.77;;;5.80;99.90;;;;;;5063343;28;20054;-54
2022/02/02 00:34:18;;;;;;;38.33;8.73;;;5.70;99.90;;;;;;5062801;28;20032;-52
2022/02/02 00:36:49;;;;;;;34.47;7.75;;;5.80;99.90;;;;;;5061651;28;20518;-55
2022/02/02 00:39:15;;;;;;;37.78;8.27;;;5.80;99.90;;;;;;5061717;28;20502;-52
2022/02/02 00:41:40;;;;;;;33.35;9.25;;;5.80;99.90;;;;;;5061982;28;20032;-53
2022/02/02 00:44:06;;;;;;;38.47;8.60;;;5.80;99.90;;;;;;5062382;28;20568;-53
2022/02/02 00:46:32;;;;;;;42.90;7.90;;;5.80;99.90;;;;;;5062997;28;20025;-53
2022/02/02 00:49:01;;;;;;;33.63;8.05;;;5.80;99.90;;;;;;5062510;28;20024;-53
2022/02/02 00:51:42;;;;;;;26.95;7.47;;;5.80;99.90;;;;;;5061063;28;20071;-51
2022/02/02 00:54:16;;;;;;;29.77;7.10;;;5.70;99.90;;;;;;5061386;28;20382;-55
2022/02/02 00:56:42;;;;;;;25.33;5.05;;;5.70;99.90;;;;;;5061700;28;20559;-55
2022/02/02 00:59:07;;;;;;;19.45;4.32;;;5.70;99.90;;;;;;5062012;28;20111;-55
2022/02/02 01:01:33;;;;;;;21.02;4.47;;;5.70;99.90;;;;;;5062121;28;20148;-53
2022/02/02 01:03:59;;;;;;;18.73;3.65;;;5.80;99.90;;;;;;5061791;28;20025;-54
2022/02/02 01:06:27;;;;;;;20.00;4.63;;;5.70;99.90;;;;;;5062156;28;20162;-50
2022/02/02 01:19:58;;;;;;;14.38;3.95;;;5.50;99.90;;;;;;5060552;28;20033;-52
2022/02/02 01:22:03;;;;;;;15.97;4.63;;;5.60;99.90;;;;;;5047093;28;20201;-51
2022/02/02 01:29:59;;;;;;;18.75;5.40;;;5.50;99.90;;;;;;5061729;28;20035;-51
2022/02/02 01:32:26;;;;;;;22.23;4.90;;;5.40;99.90;;;;;;5061542;28;20490;-51
2022/02/02 01:34:52;;;;;;;27.48;4.60;;;5.40;99.90;;;;;;5062651;28;20036;-51
2022/02/02 01:37:19;;;;;;;19.05;4.70;;;5.40;99.90;;;;;;5061602;28;20131;-51
2022/02/02 01:39:47;;;;;;;29.25;6.18;;;5.40;99.90;;;;;;5061886;28;20040;-51
2022/02/02 01:42:16;;;;;;;20.05;5.28;;;5.40;99.90;;;;;;5060731;28;20024;-50
2022/02/02 01:47:09;;;;;;;24.52;6.60;;;5.30;99.90;;;;;;5061763;28;20108;-54
2022/02/02 01:54:57;;;;;;;23.13;6.30;;;5.40;99.90;;;;;;5069892;28;20124;-51
2022/02/02 01:59:53;;;;;;;32.05;7.55;;;5.40;99.90;;;;;;5066994;28;20024;-56
2022/02/02 02:02:19;;;;;;;30.42;6.57;;;5.40;99.90;;;;;;5067548;28;20028;-55
2022/02/02 02:04:44;;;;;;;28.70;6.03;;;5.40;99.90;;;;;;5068961;28;20056;-57
2022/02/02 02:07:10;;;;;;;24.83;6.38;;;5.40;99.90;;;;;;5068799;28;20020;-52
2022/02/02 02:09:36;;;;;;;31.52;6.93;;;5.40;99.90;;;;;;5070204;28;20391;-56
2022/02/02 02:12:04;;;;;;;24.15;6.28;;;5.40;99.90;;;;;;5069762;28;20024;-56
2022/02/02 02:16:59;;;;;;;30.30;6.75;;;5.30;99.90;;;;;;5069631;28;20020;-56
2022/02/02 02:19:24;;;;;;;26.70;5.97;;;5.30;99.90;;;;;;5069592;28;20537;-50
2022/02/02 02:21:52;;;;;;;15.90;4.72;;;5.30;99.90;;;;;;5068670;28;20024;-52
2022/02/02 02:24:17;;;;;;;25.40;5.53;;;5.30;99.90;;;;;;5069112;28;20128;-53
2022/02/02 02:26:46;;;;;;;23.35;4.05;;;5.30;99.90;;;;;;5069351;28;20458;-54
2022/02/02 02:37:36;;;;;;;19.42;4.15;;;5.20;99.90;;;;;;5068934;28;20033;-56
2022/02/02 02:56:28;;;;;;;21.95;4.97;;;5.20;99.90;;;;;;5069526;28;20570;-56
2022/02/02 02:59:05;;;;;;;23.23;5.53;;;5.20;99.90;;;;;;5067381;28;20056;-51
2022/02/02 03:32:05;;;;;;;20.77;5.03;;;5.40;99.90;;;;;;5038899;28;20047;-54
2022/02/02 03:58:38;;;;;;;26.67;6.28;;;5.40;99.90;;;;;;5072966;28;20020;-57
2022/02/02 04:06:33;;;;;;;22.50;5.50;;;5.50;99.90;;;;;;5071798;28;20151;-53
2022/02/02 04:08:58;;;;;;;24.50;5.00;;;5.40;99.90;;;;;;5072930;28;20435;-58
2022/02/02 04:11:38;;;;;;;21.50;5.38;;;5.40;99.90;;;;;;5072603;28;20021;-55
2022/02/02 04:17:15;;;;;;;19.02;4.30;;;5.50;99.90;;;;;;5071821;28;20029;-55
2022/02/02 04:52:37;;;;;;;23.05;4.15;;;5.40;99.90;;;;;;5071759;28;20039;-56
2022/02/02 05:00:13;;;;;;;21.40;5.50;;;5.40;99.90;;;;;;5070173;28;20470;-58
2022/02/02 05:05:30;;;;;;;23.02;4.68;;;5.40;99.90;;;;;;5071441;28;20020;-57
2022/02/02 05:15:56;;;;;;;24.25;4.25;;;5.40;99.90;;;;;;5072114;28;20116;-55
2022/02/02 05:52:04;;;;;;;12.85;3.38;;;5.20;99.90;;;;;;5068277;28;20035;-52
2022/02/02 05:54:30;;;;;;;23.15;4.20;;;5.20;99.90;;;;;;5070106;28;20403;-54
2022/02/02 05:56:57;;;;;;;15.65;3.45;;;5.20;99.90;;;;;;5069779;28;20552;-53
2022/02/02 05:59:25;;;;;;;20.70;4.72;;;5.20;99.90;;;;;;5068920;28;20036;-51
2022/02/02 06:01:59;;;;;;;17.80;3.17;;;5.20;99.90;;;;;;5069841;28;20029;-54
2022/02/02 06:04:29;;;;;;;21.52;3.90;;;5.20;99.90;;;;;;5069117;28;20032;-54
2022/02/02 06:07:01;;;;;;;16.33;3.78;;;5.10;99.90;;;;;;5070205;28;20044;-51
2022/02/02 06:09:34;;;;;;;15.68;4.50;;;5.10;99.90;;;;;;5050264;28;20082;-56
2022/02/02 06:12:00;;;;;;;11.20;3.42;;;5.10;99.90;;;;;;5068360;28;20031;-52
2022/02/02 06:14:28;;;;;;;22.45;4.18;;;5.20;99.90;;;;;;5069663;28;20021;-53
2022/02/02 06:16:56;;;;;;;15.68;3.33;;;5.10;99.90;;;;;;5069616;28;20024;-56
2022/02/02 06:19:25;;;;;;;17.63;4.18;;;5.10;99.90;;;;;;5067800;28;20099;-53
2022/02/02 06:22:15;;;;;;;16.23;2.88;;;5.10;99.90;;;;;;5051328;28;20500;-57
2022/02/02 06:24:49;;;;;;;11.75;2.70;;;5.00;99.90;;;;;;5068944;28;20040;-53
2022/02/02 06:27:26;;;;;;;20.80;3.80;;;5.10;99.90;;;;;;5070046;28;20044;-55
2022/02/02 06:30:05;;;;;;;15.88;4.00;;;5.10;99.90;;;;;;5051671;28;20082;-55
2022/02/02 06:32:46;;;;;;;13.63;3.45;;;5.00;99.90;;;;;;5068769;28;20067;-54
2022/02/02 06:35:14;;;;;;;13.75;3.17;;;5.10;99.90;;;;;;5068561;28;20028;-55
2022/02/02 06:37:41;;;;;;;13.65;2.97;;;5.10;99.90;;;;;;5068818;28;20024;-56
2022/02/02 06:40:07;;;;;;;9.00;2.78;;;5.10;99.90;;;;;;5068688;28;20032;-56
2022/02/02 06:42:35;;;;;;;12.25;2.83;;;5.00;99.90;;;;;;5068546;28;20613;-56
2022/02/02 06:45:01;;;;;;;14.52;3.05;;;5.00;99.90;;;;;;5068407;28;20028;-56
2022/02/02 06:47:27;;;;;;;19.38;4.20;;;5.00;99.90;;;;;;5069238;28;20029;-55
2022/02/02 06:50:03;;;;;;;15.95;3.25;;;5.00;99.90;;;;;;5067863;28;20051;-56
2022/02/02 06:52:35;;;;;;;14.07;4.57;;;5.00;99.90;;;;;;5050490;28;20024;-56
2022/02/02 06:55:19;;;;;;;17.20;3.15;;;5.00;99.90;;;;;;5068457;28;20036;-54
2022/02/02 06:58:16;;;;;;;17.52;3.70;;;5.00;99.90;;;;;;5069076;28;20052;-56
2022/02/02 07:00:58;;;;;;;;;;;5.00;99.90;;;;;;5067975;28;20040;-55
2022/02/02 07:03:45;;;;;;;15.30;3.40;;;4.90;99.90;;;;;;5050281;28;19913;-57
2022/02/02 07:06:42;;;;;;;9.52;2.50;;;4.90;99.90;;;;;;5069482;28;20029;-56
2022/02/02 07:09:26;;;;;;;14.95;3.83;;;4.90;99.90;;;;;;5066285;28;20037;-53
2022/02/02 07:12:19;;;;;;;23.13;4.32;;;4.90;99.90;;;;;;5069429;28;20020;-57
2022/02/02 07:30:18;;;;;;;18.60;3.80;;;5.00;99.90;;;;;;5067540;28;20575;-53
2022/02/02 07:32:51;;;;;;;17.35;4.40;;;5.00;99.90;;;;;;5066348;28;20104;-54
2022/02/02 07:35:28;;;;;;;15.38;3.97;;;4.90;99.90;;;;;;5050551;28;20507;-55
2022/02/02 07:38:08;;;;;;;19.77;3.50;;;4.90;99.90;;;;;;5068773;28;20044;-53
2022/02/02 07:40:34;;;;;;;13.75;3.92;;;4.90;99.90;;;;;;5047098;28;20024;-53
2022/02/02 07:43:03;;;;;;;18.30;4.05;;;4.90;99.90;;;;;;5067795;28;20492;-57
2022/02/02 07:45:31;;;;;;;15.45;4.50;;;5.00;99.90;;;;;;5067283;28;20036;-55
2022/02/02 07:48:02;;;;;;;15.25;3.25;;;5.00;99.90;;;;;;5068014;28;20675;-54
2022/02/02 07:50:33;;;;;;;17.23;4.47;;;5.00;99.90;;;;;;5090232;22;20079;-52
2022/02/02 07:53:04;;;;;;;15.00;3.88;;;5.00;99.90;;;;;;5067935;28;20678;-49
2022/02/02 07:55:32;;;;;;;19.95;3.85;;;5.00;99.90;;;;;;5068240;28;20090;-53
2022/02/02 07:58:00;;;;;;;20.67;4.03;;;5.10;99.90;;;;;;5068867;28;20037;-54
2022/02/02 08:00:25;;;;;;;14.43;3.75;;;5.10;99.90;;;;;;5069025;28;20391;-52
2022/02/02 08:02:59;;;;;;;14.85;4.43;;;5.10;99.90;;;;;;5069330;28;20112;-52
2022/02/02 08:05:27;;;;;;;23.08;4.65;;;5.10;99.90;;;;;;5069826;28;20025;-51
2022/02/02 08:08:11;;;;;;;12.32;3.00;;;5.10;99.90;;;;;;5069548;28;20016;-53
2022/02/02 08:10:38;;;;;;;12.65;3.72;;;5.10;99.90;;;;;;5068687;28;20093;-53
2022/02/02 08:13:16;;;;;;;13.10;3.25;;;5.10;99.90;;;;;;5068597;28;20051;-51
2022/02/02 08:15:42;;;;;;;14.80;5.18;;;5.10;99.90;;;;;;5049437;28;20025;-52
2022/02/02 08:18:08;;;;;;;14.90;3.72;;;5.20;99.90;;;;;;5068427;28;20082;-52
2022/02/02 08:20:33;;;;;;;14.50;3.63;;;5.20;99.90;;;;;;5067663;28;20508;-51
2022/02/02 08:22:59;;;;;;;13.68;4.20;;;5.20;99.90;;;;;;5068118;28;20028;-52
2022/02/02 08:25:27;;;;;;;12.73;3.15;;;5.20;99.90;;;;;;5068528;28;20028;-52
2022/02/02 08:27:58;;;;;;;15.45;4.13;;;5.20;99.90;;;;;;5068574;28;20015;-50
2022/02/02 08:30:27;;;;;;;18.50;3.75;;;5.30;99.90;;;;;;5068500;28;20017;-52
2022/02/02 08:32:57;;;;;;;15.52;3.47;;;5.20;99.90;;;;;;5067507;28;20016;-52
2022/02/02 08:35:24;;;;;;;23.35;4.90;;;5.30;99.90;;;;;;5068362;28;20471;-54
2022/02/02 08:37:58;;;;;;;12.80;3.03;;;5.30;99.90;;;;;;5069365;28;20083;-52
2022/02/02 08:40:36;;;;;;;9.82;2.70;;;5.30;99.90;;;;;;5069355;28;20112;-52
2022/02/02 08:43:09;;;;;;;25.58;4.07;;;5.30;99.90;;;;;;5072138;28;20120;-52
2022/02/02 08:45:37;;;;;;;14.73;2.97;;;5.20;99.90;;;;;;5072949;28;20200;-52
2022/02/02 08:48:07;;;;;;;10.30;3.28;;;5.20;99.90;;;;;;5073423;28;20456;-53
2022/02/02 08:50:45;;;;;;;16.08;4.70;;;5.20;99.90;;;;;;5072226;28;20107;-52
2022/02/02 08:58:40;;;;;;;14.88;3.90;;;5.20;99.90;;;;;;5072268;28;20111;-53
2022/02/02 09:01:10;;;;;;;19.02;3.45;;;5.30;99.90;;;;;;5071183;28;20908;-51
2022/02/02 09:06:21;;;;;;;13.00;3.83;;;5.30;99.90;;;;;;5071521;28;20677;-53
2022/02/02 09:08:49;;;;;;;15.15;3.50;;;5.30;99.90;;;;;;5052771;28;20056;-52
2022/02/02 09:35:33;;;;;;;11.32;2.47;;;5.80;99.90;;;;;;5071992;28;20044;-53
2022/02/02 09:38:01;;;;;;;15.00;2.67;;;5.90;99.90;;;;;;5071178;28;20771;-54
2022/02/02 09:43:17;;;;;;;10.93;3.17;;;5.90;99.90;;;;;;5072522;28;20047;-51
2022/02/02 09:45:50;;;;;;;17.77;3.42;;;5.90;99.90;;;;;;5070374;28;20020;-52
2022/02/02 09:48:28;;;;;;;17.17;3.10;;;5.90;99.90;;;;;;5071921;28;20107;-52
2022/02/02 09:50:59;;;;;;;13.98;3.33;;;5.90;99.90;;;;;;5069956;28;20029;-54
2022/02/02 09:53:36;;;;;;;12.77;3.58;;;6.00;99.90;;;;;;5070936;28;20081;-54
2022/02/02 09:59:18;;;;;;;10.93;2.38;;;5.90;99.90;;;;;;5071608;28;20522;-53
2022/02/02 10:02:35;;;;;;;16.38;2.95;;;5.90;99.90;;;;;;5069638;28;20111;-54
2022/02/02 10:10:24;;;;;;;12.35;3.75;;;6.00;99.90;;;;;;5069526;28;20044;-53
2022/02/02 10:15:25;;;;;;;15.13;2.65;;;6.10;99.90;;;;;;5069423;28;20048;-53
2022/02/02 10:18:09;;;;;;;7.88;2.22;;;6.00;99.90;;;;;;5068097;28;20415;-54
2022/02/02 10:20:36;;;;;;;20.85;3.78;;;6.00;99.90;;;;;;5069409;28;20025;-51
2022/02/02 10:23:04;;;;;;;14.98;3.33;;;6.00;99.90;;;;;;5069384;28;20507;-50
2022/02/02 10:25:31;;;;;;;19.67;3.35;;;6.00;99.90;;;;;;5070149;28;20023;-51
2022/02/02 10:28:15;;;;;;;15.80;3.50;;;6.00;99.90;;;;;;5069588;28;20087;-50
2022/02/02 10:30:45;;;;;;;11.27;2.70;;;6.00;99.90;;;;;;5069847;28;20027;-53
2022/02/02 10:33:13;;;;;;;18.13;2.53;;;6.10;99.90;;;;;;5070174;28;20028;-51
2022/02/02 10:35:44;;;;;;;10.80;2.92;;;6.10;99.90;;;;;;5069633;28;20017;-54
2022/02/02 10:38:13;;;;;;;14.15;2.95;;;6.10;99.90;;;;;;5070690;28;20533;-50
2022/02/02 10:43:51;;;;;;;18.90;3.65;;;6.20;99.90;;;;;;5024228;28;20174;-52
2022/02/02 10:46:38;;;;;;;10.27;2.97;;;6.20;99.90;;;;;;5070536;28;20032;-54
2022/02/02 10:49:31;;;;;;;;;;;6.30;99.90;;;;;;5070824;28;20013;-52
2022/02/02 10:52:09;;;;;;;12.65;3.33;;;6.40;99.90;;;;;;5068762;28;19912;-51
2022/02/02 10:54:43;;;;;;;14.20;2.45;;;6.50;99.90;;;;;;5051445;28;20104;-52
2022/02/02 11:07:17;;;;;;;17.88;2.88;;;6.50;99.90;;;;;;5070312;28;20035;-52
2022/02/02 11:09:46;;;;;;;10.38;2.60;;;6.50;99.90;;;;;;5069314;28;20403;-50
2022/02/02 11:12:13;;;;;;;12.95;3.00;;;6.50;99.90;;;;;;5067368;28;20016;-53
2022/02/02 11:15:03;;;;;;;11.45;2.50;;;6.60;99.90;;;;;;5069728;28;20082;-50
2022/02/02 11:17:47;;;;;;;11.75;3.08;;;6.60;99.90;;;;;;5069262;28;20020;-51
2022/02/02 11:20:15;;;;;;;11.32;2.40;;;6.50;99.90;;;;;;5069063;28;20438;-51
2022/02/02 11:22:53;;;;;;;8.43;2.65;;;6.60;99.90;;;;;;5050916;28;20012;-51
2022/02/02 11:25:24;;;;;;;10.48;2.13;;;6.60;99.90;;;;;;5068139;28;20024;-53
2022/02/02 11:27:52;;;;;;;8.93;1.77;;;6.70;99.90;;;;;;5067326;28;20128;-51
2022/02/02 11:30:24;;;;;;;12.23;2.85;;;6.70;99.90;;;;;;5049983;28;20052;-53
2022/02/02 11:32:52;;;;;;;13.48;2.22;;;6.80;99.90;;;;;;5049421;28;20554;-52
2022/02/02 11:35:39;;;;;;;14.98;2.97;;;6.80;99.90;;;;;;5068923;28;20025;-51
2022/02/02 11:38:18;;;;;;;10.73;3.30;;;6.80;99.90;;;;;;5067906;28;20520;-51
2022/02/02 11:44:03;;;;;;;8.63;2.40;;;6.80;99.90;;;;;;5068023;28;20083;-52
2022/02/02 11:46:55;;;;;;;10.02;2.28;;;6.80;99.90;;;;;;5069767;28;20439;-54
2022/02/02 11:49:24;;;;;;;8.40;2.15;;;6.70;99.90;;;;;;5070632;28;20047;-53
2022/02/02 11:51:51;;;;;;;6.88;2.28;;;6.60;99.90;;;;;;5069136;28;20111;-55
2022/02/02 11:54:19;;;;;;;12.25;2.70;;;6.50;99.90;;;;;;5069556;28;20064;-54
2022/02/02 12:02:49;;;;;;;6.03;1.85;;;6.40;99.90;;;;;;5069024;28;20454;-49
2022/02/02 12:08:15;;;;;;;7.40;2.28;;;6.30;99.90;;;;;;5067963;28;20411;-51
2022/02/02 12:49:58;;;;;;;11.18;2.03;;;6.60;99.90;;;;;;5073770;28;20078;-50
2022/02/02 12:58:36;;;;;;;7.68;1.30;;;6.30;99.90;;;;;;5010684;28;20563;-51
2022/02/02 13:01:13;;;;;;;7.38;1.38;;;6.30;99.90;;;;;;5001514;28;20022;-53
2022/02/02 13:03:41;;;;;;;4.32;1.88;;;6.20;99.90;;;;;;5044566;28;20030;-51
2022/02/02 13:06:15;;;;;;;10.27;2.22;;;6.30;99.90;;;;;;5069385;28;20426;-52
2022/02/02 13:08:42;;;;;;;7.22;1.50;;;6.30;99.90;;;;;;5053656;28;20025;-51
2022/02/02 13:11:08;;;;;;;11.57;1.80;;;6.40;99.90;;;;;;5071035;28;20032;-51
2022/02/02 13:13:34;;;;;;;6.28;1.27;;;6.50;99.90;;;;;;5071262;28;20028;-51
2022/02/02 13:16:13;;;;;;;9.68;1.90;;;6.60;99.90;;;;;;5071095;28;20051;-51
2022/02/02 13:18:46;;;;;;;8.30;1.75;;;6.60;99.90;;;;;;5071802;28;20023;-51
2022/02/02 13:21:19;;;;;;;4.78;1.35;;;6.60;99.90;;;;;;5070797;28;20028;-52
2022/02/02 13:26:43;;;;;;;12.48;1.77;;;6.70;99.90;;;;;;5071486;28;20101;-52
2022/02/02 13:29:44;;;;;;;4.30;1.35;;;6.80;99.90;;;;;;5071261;28;20024;-54
2022/02/02 13:32:37;;;;;;;5.45;1.27;;;6.70;99.90;;;;;;5053030;28;20560;-55
2022/02/02 13:56:35;;;;;;;7.93;1.90;;;5.50;99.90;;;;;;5089216;28;20028;-51
2022/02/02 14:01:54;;;;;;;5.45;1.67;;;5.30;99.90;;;;;;5090438;28;20378;-52
2022/02/02 14:10:15;;;;;;;3.50;1.73;;;5.00;99.90;;;;;;5089718;28;20047;-53
2022/02/02 14:31:10;;;;;;;6.18;1.90;;;4.90;99.90;;;;;;5087958;28;20043;-50
2022/02/02 14:33:40;;;;;;;4.82;1.35;;;5.00;99.90;;;;;;5089269;28;20372;-48
2022/02/02 14:36:09;;;;;;;8.88;1.83;;;5.00;99.90;;;;;;5088213;28;20028;-49
2022/02/02 14:43:59;;;;;;;9.90;2.45;;;5.00;99.90;;;;;;5088869;28;20376;-50
2022/02/02 14:46:36;;;;;;;6.38;1.55;;;5.10;99.90;;;;;;5089014;28;20054;-49
2022/02/02 14:49:10;;;;;;;9.52;2.33;;;5.00;99.90;;;;;;5086978;28;20016;-51
2022/02/02 14:51:55;;;;;;;9.23;3.03;;;5.00;99.90;;;;;;5086913;28;20050;-51
2022/02/02 15:05:38;;;;;;;6.10;1.48;;;4.90;99.90;;;;;;5085036;28;20030;-50
2022/02/02 15:23:50;;;;;;;10.18;1.83;;;5.00;99.90;;;;;;5077527;28;20058;-50
2022/02/02 15:25:28;;;;;;;9.60;1.65;;;5.10;99.90;;;;;;5085960;28;20058;-52
2022/02/02 15:27:58;;;;;;;8.18;1.58;;;5.10;99.90;;;;;;5087474;28;20024;-53
2022/02/02 15:30:46;;;;;;;8.95;1.83;;;5.20;99.90;;;;;;5086115;28;20063;-52
2022/02/02 15:33:17;;;;;;;8.80;2.25;;;5.20;99.90;;;;;;5071521;28;20020;-49
2022/02/02 15:35:44;;;;;;;9.43;1.52;;;5.20;99.90;;;;;;5087591;28;20024;-51
2022/02/02 15:38:24;;;;;;;9.63;2.17;;;5.20;99.90;;;;;;5069235;28;20016;-53
2022/02/02 15:40:56;;;;;;;7.78;2.08;;;5.20;99.90;;;;;;5087825;28;20015;-53
2022/02/02 16:04:38;;;;;;;10.25;2.50;;;5.10;99.90;;;;;;5090756;28;20518;-52
2022/02/02 16:07:07;;;;;;;15.80;2.72;;;5.00;99.90;;;;;;5091418;28;20050;-54
2022/02/02 16:09:53;;;;;;;10.63;2.03;;;5.00;99.90;;;;;;5089391;28;20089;-51
2022/02/02 16:14:50;;;;;;;8.77;2.13;;;4.90;99.90;;;;;;5090533;28;20032;-52
2022/02/02 16:17:36;;;;;;;6.47;2.17;;;4.90;99.90;;;;;;5072960;28;20051;-51
2022/02/02 16:31:33;;;;;;;9.40;2.15;;;4.90;99.90;;;;;;5090708;28;20620;-52
2022/02/02 16:36:41;;;;;;;12.02;2.85;;;4.60;99.90;;;;;;5090692;28;20035;-49
2022/02/02 16:39:11;;;;;;;7.88;2.05;;;4.60;99.90;;;;;;5090933;28;20022;-49
2022/02/02 16:44:22;;;;;;;6.15;2.20;;;4.50;99.90;;;;;;5090690;28;20068;-51
2022/02/02 16:46:47;;;;;;;9.93;2.35;;;4.50;99.90;;;;;;5090159;28;20020;-50
2022/02/02 16:49:13;;;;;;;18.30;3.00;;;4.40;99.90;;;;;;5086993;28;20510;-51
2022/02/02 16:51:40;;;;;;;4.25;1.83;;;4.40;99.90;;;;;;5071051;28;20607;-51
2022/02/02 16:54:10;;;;;;;8.38;2.53;;;4.30;99.90;;;;;;5089785;28;20081;-51
2022/02/02 16:56:57;;;;;;;7.72;2.40;;;4.20;99.90;;;;;;5089517;28;20025;-51
2022/02/02 17:32:14;;;;;;;16.25;8.52;;;3.40;99.90;;;;;;5088392;28;20025;-51
2022/02/02 17:34:47;;;;;;;21.35;10.85;;;3.30;99.90;;;;;;5089776;28;20024;-48
2022/02/02 17:39:56;;;;;;;11.80;3.88;;;3.30;99.90;;;;;;5090523;28;20058;-50
2022/02/02 18:12:25;;;;;;;14.50;3.75;;;2.90;99.90;;;;;;5089377;28;20444;-50
2022/02/02 18:19:59;;;;;;;11.90;3.17;;;2.70;99.90;;;;;;5089287;28;20111;-52
2022/02/02 18:22:32;;;;;;;8.13;2.97;;;2.70;99.90;;;;;;5089375;28;20028;-50
2022/02/02 18:25:05;;;;;;;13.10;3.15;;;2.60;99.90;;;;;;5071636;28;20506;-51
2022/02/02 18:27:45;;;;;;;9.30;3.17;;;2.60;99.90;;;;;;5089838;28;20020;-51
2022/02/02 18:32:56;;;;;;;17.60;5.30;;;2.50;99.90;;;;;;5089242;28;20391;-52
2022/02/02 18:35:23;;;;;;;26.38;10.95;;;2.50;99.90;;;;;;5089439;28;20028;-50
2022/02/02 18:39:04;;;;;;;16.35;6.05;;;2.40;99.90;;;;;;5089280;28;20019;-52
2022/02/02 18:49:16;;;;;;;10.57;3.13;;;2.30;99.90;;;;;;5064277;28;20471;-48
2022/02/02 18:54:52;;;;;;;8.77;2.03;;;2.20;99.90;;;;;;5043212;28;20028;-49
2022/02/02 19:02:40;;;;;;;8.57;2.92;;;2.10;99.90;;;;;;5088452;28;20040;-49
2022/02/02 19:38:27;;;;;;;9.82;3.13;;;1.70;99.90;;;;;;5073504;28;20445;-48
2022/02/02 20:01:50;;;;;;;9.27;3.33;;;1.50;99.90;;;;;;5034468;28;20524;-77
2022/02/02 20:07:10;;;;;;;8.52;4.03;;;1.40;99.90;;;;;;5036528;28;20500;-77
2022/02/02 20:09:55;;;;;;;14.30;4.72;;;1.40;99.90;;;;;;5036129;28;20044;-77
2022/02/02 20:12:25;;;;;;;9.00;3.25;;;1.40;99.90;;;;;;5037353;28;20037;-77
2022/02/02 20:14:51;;;;;;;25.92;11.25;;;1.40;99.90;;;;;;5034972;28;20030;-77
2022/02/02 20:17:19;;;;;;;81.18;32.83;;;1.30;99.90;;;;;;5028895;28;20061;-78
2022/02/02 20:19:51;;;;;;;53.22;21.33;;;1.30;99.90;;;;;;5033325;28;20056;-77
2022/02/02 20:22:19;;;;;;;61.28;23.38;;;1.30;99.90;;;;;;5035965;28;20083;-76
2022/02/02 20:24:52;;;;;;;73.18;27.25;;;1.30;99.90;;;;;;5040523;28;20025;-77
2022/02/02 20:27:19;;;;;;;40.50;18.17;;;1.30;99.90;;;;;;5032096;28;20593;-77
2022/02/02 20:29:44;;;;;;;34.10;14.57;;;1.30;99.90;;;;;;5039538;28;20021;-77
2022/02/02 20:32:10;;;;;;;23.63;9.68;;;1.30;99.90;;;;;;5029057;28;20026;-77
2022/02/02 20:34:36;;;;;;;14.27;7.00;;;1.20;99.90;;;;;;5043681;28;20028;-77
2022/02/02 20:37:01;;;;;;;21.38;4.93;;;1.20;99.90;;;;;;5044930;28;20021;-77
2022/02/02 20:41:57;;;;;;;16.20;5.25;;;1.20;99.90;;;;;;5039990;28;20124;-77
2022/02/02 20:44:36;;;;;;;21.33;4.10;;;1.20;99.90;;;;;;5034258;28;20022;-77
2022/02/02 21:00:19;;;;;;;13.13;3.58;;;1.20;99.90;;;;;;5033870;28;20016;-78
2022/02/02 21:09:51;;;;;;;12.68;3.10;;;1.20;99.90;;;;;;5079985;28;20027;-55
2022/02/02 21:14:36;;;;;;;16.02;3.78;;;1.20;99.90;;;;;;5081599;28;20028;-52
2022/02/02 21:17:04;;;;;;;13.73;3.58;;;1.20;99.90;;;;;;5082237;28;20075;-53
2022/02/02 21:19:38;;;;;;;18.17;3.45;;;1.20;99.90;;;;;;5082255;28;20024;-55
2022/02/02 21:22:05;;;;;;;11.00;3.17;;;1.20;99.90;;;;;;5079090;28;20032;-54
2022/02/02 21:24:47;;;;;;;9.23;3.17;;;1.10;99.90;;;;;;5081406;28;20025;-55
2022/02/02 21:29:38;;;;;;;16.60;5.25;;;1.20;99.90;;;;;;5063527;28;20111;-54
2022/02/02 21:32:05;;;;;;;12.68;3.80;;;1.20;99.90;;;;;;5080117;28;20055;-56
2022/02/02 21:34:30;;;;;;;13.10;3.22;;;1.20;99.90;;;;;;5080822;28;20487;-54
2022/02/02 21:37:01;;;;;;;12.85;4.15;;;1.20;99.90;;;;;;5081216;28;20038;-54
2022/02/02 21:39:29;;;;;;;16.50;3.72;;;1.20;99.90;;;;;;5081175;28;20429;-57
2022/02/02 21:41:55;;;;;;;15.65;3.53;;;1.20;99.90;;;;;;5079702;28;20062;-56
2022/02/02 21:44:21;;;;;;;20.65;3.30;;;1.20;99.90;;;;;;5077399;28;20735;-57
2022/02/02 21:46:48;;;;;;;14.05;3.08;;;1.20;99.90;;;;;;5078608;28;20115;-54
2022/02/02 21:49:19;;;;;;;12.13;4.00;;;1.30;99.90;;;;;;5058787;28;20035;-52
2022/02/02 21:52:07;;;;;;;10.48;3.13;;;1.30;99.90;;;;;;5079011;28;20414;-55
2022/02/02 21:54:33;;;;;;;16.00;3.83;;;1.30;99.90;;;;;;5078652;28;20121;-54
2022/02/02 21:56:59;;;;;;;11.75;3.35;;;1.30;99.90;;;;;;5079858;28;20459;-56
2022/02/02 21:59:25;;;;;;;15.25;3.58;;;1.30;99.90;;;;;;5080795;28;20040;-57
2022/02/02 22:01:51;;;;;;;14.45;3.80;;;1.30;99.90;;;;;;5081146;28;20038;-54
2022/02/02 22:04:17;;;;;;;11.80;3.15;;;1.30;99.90;;;;;;5079084;28;20393;-56
2022/02/02 22:06:42;;;;;;;21.10;3.45;;;1.30;99.90;;;;;;5081510;28;20060;-54
2022/02/02 22:09:08;;;;;;;12.82;3.55;;;1.30;99.90;;;;;;5080696;28;20526;-54
2022/02/02 22:11:33;;;;;;;12.98;3.58;;;1.30;99.90;;;;;;5080206;28;20086;-55
2022/02/02 22:14:15;;;;;;;17.35;3.63;;;1.30;99.90;;;;;;5080374;28;20054;-52
2022/02/02 22:16:42;;;;;;;14.07;3.08;;;1.30;99.90;;;;;;5061621;28;20036;-57
2022/02/02 22:19:08;;;;;;;18.58;4.63;;;1.30;99.90;;;;;;5079816;28;20115;-56
2022/02/02 22:21:33;;;;;;;12.80;3.13;;;1.30;99.90;;;;;;5078468;28;20111;-55
2022/02/02 22:24:03;;;;;;;11.07;3.95;;;1.30;99.90;;;;;;5061566;28;20032;-56
2022/02/02 22:26:29;;;;;;;7.13;2.55;;;1.30;99.90;;;;;;5077570;28;20467;-54
2022/02/02 22:28:55;;;;;;;10.80;2.88;;;1.30;99.90;;;;;;5080670;28;20091;-53
2022/02/02 22:31:21;;;;;;;10.35;3.20;;;1.30;99.90;;;;;;5080566;28;20058;-53
2022/02/02 22:33:47;;;;;;;13.82;3.08;;;1.30;99.90;;;;;;5061524;28;20037;-57
2022/02/02 22:36:13;;;;;;;17.13;4.25;;;1.30;99.90;;;;;;5078687;28;20544;-56
2022/02/02 22:38:40;;;;;;;14.70;3.08;;;1.30;99.90;;;;;;5077832;28;20081;-57
2022/02/02 22:41:05;;;;;;;11.73;3.35;;;1.30;99.90;;;;;;5079872;28;20596;-53
2022/02/02 22:43:33;;;;;;;15.35;3.22;;;1.20;99.90;;;;;;5079827;28;20167;-52
2022/02/02 22:45:59;;;;;;;17.35;3.70;;;1.30;99.90;;;;;;5080192;28;20028;-54
2022/02/02 22:48:29;;;;;;;17.05;3.42;;;1.30;99.90;;;;;;5079425;28;20021;-51
2022/02/02 22:50:55;;;;;;;14.60;3.55;;;1.30;99.90;;;;;;5079204;28;20556;-56
2022/02/02 22:53:24;;;;;;;10.77;3.03;;;1.30;99.90;;;;;;5077941;28;20070;-52
2022/02/02 22:55:49;;;;;;;12.60;3.35;;;1.30;99.90;;;;;;5080174;28;20498;-52
2022/02/02 22:58:15;;;;;;;13.70;3.15;;;1.30;99.90;;;;;;5079239;28;20033;-54
2022/02/02 23:00:41;;;;;;;11.45;1.92;;;1.30;99.90;;;;;;5078409;28;20123;-55
2022/02/02 23:03:14;;;;;;;14.35;3.25;;;1.30;99.90;;;;;;5079207;28;20040;-50
2022/02/02 23:05:43;;;;;;;15.68;3.20;;;1.30;99.90;;;;;;5080510;28;20020;-52
2022/02/02 23:08:11;;;;;;;8.98;2.63;;;1.30;99.90;;;;;;5078875;28;20027;-54
2022/02/02 23:10:38;;;;;;;14.05;3.60;;;1.30;99.90;;;;;;5076666;28;20024;-53
2022/02/02 23:13:05;;;;;;;11.05;2.53;;;1.30;99.90;;;;;;5077836;28;20036;-53
2022/02/02 23:18:18;;;;;;;8.55;2.78;;;1.30;99.90;;;;;;5078954;28;20031;-53
2022/02/02 23:20:49;;;;;;;9.88;3.55;;;1.30;99.90;;;;;;5078801;28;20031;-55
2022/02/02 23:23:17;;;;;;;14.45;3.47;;;1.30;99.90;;;;;;5077886;28;20110;-56
2022/02/02 23:25:43;;;;;;;10.73;3.22;;;1.40;99.90;;;;;;5076390;28;20065;-53
2022/02/02 23:28:11;;;;;;;13.80;4.10;;;1.40;99.90;;;;;;5077724;28;20060;-56
2022/02/02 23:30:41;;;;;;;15.93;3.13;;;1.40;99.90;;;;;;5079392;28;20427;-51
2022/02/02 23:33:06;;;;;;;8.43;2.50;;;1.40;99.90;;;;;;5079330;28;20479;-53
2022/02/02 23:35:32;;;;;;;17.63;3.20;;;1.40;99.90;;;;;;5079775;28;20047;-56
2022/02/02 23:37:59;;;;;;;13.90;3.63;;;1.40;99.90;;;;;;5061542;28;20028;-54
2022/02/02 23:40:25;;;;;;;18.17;3.63;;;1.50;99.90;;;;;;5079220;28;20032;-55
2022/02/02 23:42:51;;;;;;;18.50;3.60;;;1.50;99.90;;;;;;5078857;28;20032;-53
2022/02/02 23:45:17;;;;;;;11.07;2.67;;;1.50;99.90;;;;;;5079298;28;20039;-57
2022/02/02 23:47:47;;;;;;;9.48;3.25;;;1.50;99.90;;;;;;5077143;28;20128;-56